Time;durP1;ratioP1;P1;durP2;ratioP2;P2;SDS_P1;SDS_P2;PMS_P1;PMS_P2;Temp;Humidity;BMP_temperature;BMP_pressure;BME280_temperature;BME280_humidity;BME280_pressure;Samples;Min_cycle;Max_cycle;Signal;HPM_P1;HPM_P2
2022/11/20 00:02:09;;;;;;;0.50;0.50;;;;;;;-0.82;73.59;100585.53;5063671;28;20029;-74
2022/11/20 00:04:34;;;;;;;0.60;0.60;;;;;;;-0.86;73.17;100572.59;5065050;28;20104;-75
2022/11/20 00:07:00;;;;;;;0.55;0.55;;;;;;;-0.83;73.60;100581.22;5065179;28;20029;-74
2022/11/20 00:09:28;;;;;;;0.57;0.57;;;;;;;-0.91;73.82;100573.25;5063767;28;20412;-75
2022/11/20 00:11:53;;;;;;;0.60;0.60;;;;;;;-0.83;73.40;100581.22;5065195;28;20163;-75
2022/11/20 00:14:19;;;;;;;0.60;0.60;;;;;;;-0.78;73.43;100584.84;5065312;28;20040;-76
2022/11/20 00:16:44;;;;;;;0.70;0.70;;;;;;;-0.81;73.51;100571.97;5065111;28;20029;-75
2022/11/20 00:19:09;;;;;;;0.60;0.60;;;;;;;-0.76;73.57;100588.31;5066187;28;20128;-75
2022/11/20 00:21:35;;;;;;;0.57;0.57;;;;;;;-0.85;73.60;100570.09;5066466;28;20084;-76
2022/11/20 00:24:00;;;;;;;0.60;0.60;;;;;;;-0.76;73.66;100593.41;5065957;28;20028;-75
2022/11/20 00:26:28;;;;;;;0.80;0.80;;;;;;;-0.75;73.50;100592.59;5064458;28;20036;-75
2022/11/20 00:28:58;;;;;;;0.52;0.52;;;;;;;-0.76;73.53;100583.22;5066175;28;20477;-76
2022/11/20 00:31:24;;;;;;;0.70;0.70;;;;;;;-0.74;73.53;100590.94;5064948;28;20068;-75
2022/11/20 00:33:50;;;;;;;0.60;0.60;;;;;;;-0.77;73.31;100584.00;5064807;28;20024;-76
2022/11/20 00:36:22;;;;;;;0.60;0.60;;;;;;;-0.76;73.37;100585.78;5064624;28;20029;-76
2022/11/20 00:38:52;;;;;;;0.70;0.70;;;;;;;-0.75;73.29;100587.50;5064801;28;20021;-76
2022/11/20 00:41:17;;;;;;;0.70;0.70;;;;;;;-0.79;73.21;100575.44;5064640;28;20035;-75
2022/11/20 00:43:42;;;;;;;0.60;0.60;;;;;;;-0.81;73.24;100579.59;5063195;28;20048;-74
2022/11/20 00:46:12;;;;;;;0.63;0.63;;;;;;;-0.81;73.19;100577.06;5062996;28;20472;-76
2022/11/20 00:48:37;;;;;;;0.60;0.60;;;;;;;-0.79;73.01;100580.56;5064917;28;20032;-75
2022/11/20 00:51:03;;;;;;;0.70;0.70;;;;;;;-0.77;73.25;100586.56;5063297;28;20029;-74
2022/11/20 00:53:29;;;;;;;0.65;0.65;;;;;;;-0.83;73.30;100588.84;5069023;28;20075;-75
2022/11/20 00:56:03;;;;;;;0.68;0.68;;;;;;;-0.87;73.56;100587.00;5068379;28;20028;-76
2022/11/20 00:58:31;;;;;;;0.60;0.60;;;;;;;-0.93;73.46;100576.56;5068282;28;20507;-76
2022/11/20 01:01:07;;;;;;;0.77;0.77;;;;;;;-0.90;73.47;100586.88;5066808;28;20032;-75
2022/11/20 01:03:34;;;;;;;0.60;0.60;;;;;;;-0.90;73.39;100587.75;5066922;28;20075;-76
2022/11/20 01:06:01;;;;;;;0.60;0.60;;;;;;;-0.96;73.38;100587.50;5068084;28;20086;-75
2022/11/20 01:08:30;;;;;;;0.60;0.60;;;;;;;-0.93;73.27;100591.84;5066725;28;20017;-76
2022/11/20 01:11:04;;;;;;;0.60;0.60;;;;;;;-0.96;73.38;100595.16;5068144;28;20104;-76
2022/11/20 01:13:37;;;;;;;0.60;0.60;;;;;;;-0.95;73.28;100594.34;5068015;28;20025;-76
2022/11/20 01:16:35;;;;;;;0.60;0.60;;;;;;;-0.97;73.49;100602.72;5049885;28;20465;-75
2022/11/20 01:19:04;;;;;;;0.60;0.60;;;;;;;-0.98;73.59;100600.97;5056235;28;20049;-75
2022/11/20 01:21:35;;;;;;;0.57;0.57;;;;;;;-1.01;73.59;100609.38;5066725;28;20028;-75
2022/11/20 01:24:02;;;;;;;0.60;0.60;;;;;;;-1.06;73.51;100596.44;5050148;28;20024;-76
2022/11/20 01:26:30;;;;;;;0.50;0.50;;;;;;;-1.03;73.60;100606.75;5068216;28;20052;-75
2022/11/20 01:28:56;;;;;;;0.60;0.60;;;;;;;-1.04;73.57;100594.81;5067981;28;20027;-75
2022/11/20 01:31:24;;;;;;;0.60;0.60;;;;;;;-1.05;73.89;100605.81;5066645;28;20048;-75
2022/11/20 01:33:52;;;;;;;0.63;0.63;;;;;;;-1.03;73.92;100603.34;5066105;28;20025;-75
2022/11/20 01:36:19;;;;;;;0.55;0.55;;;;;;;-1.09;73.95;100603.97;5067634;28;20057;-74
2022/11/20 01:38:45;;;;;;;0.50;0.50;;;;;;;-1.11;74.01;100597.91;5067730;28;20029;-74
2022/11/20 01:43:20;;;;;;;0.57;0.57;;;;;;;-1.08;74.05;100592.94;5066135;28;20073;-75
2022/11/20 01:43:57;;;;;;;0.50;0.50;;;;;;;-1.07;74.15;100596.38;5067385;28;20041;-74
2022/11/20 01:46:23;;;;;;;0.60;0.60;;;;;;;-1.13;74.29;100596.97;5067447;28;20504;-74
2022/11/20 01:48:58;;;;;;;0.52;0.52;;;;;;;-1.11;74.41;100590.28;5067659;28;20048;-74
2022/11/20 01:51:42;;;;;;;0.50;0.50;;;;;;;-1.09;74.40;100588.66;5067325;28;20024;-75
2022/11/20 01:54:14;;;;;;;0.50;0.50;;;;;;;-1.17;74.41;100584.91;5067664;28;20020;-75
2022/11/20 01:56:42;;;;;;;0.60;0.60;;;;;;;-1.20;74.43;100572.94;5067314;28;20070;-75
2022/11/20 01:59:10;;;;;;;0.65;0.65;;;;;;;-1.18;74.69;100580.63;5067130;28;20021;-75
2022/11/20 02:01:36;;;;;;;0.60;0.60;;;;;;;-1.18;74.57;100571.28;5049317;28;20051;-74
2022/11/20 02:04:02;;;;;;;0.57;0.57;;;;;;;-1.13;74.81;100577.47;5066985;28;20021;-75
2022/11/20 02:06:35;;;;;;;0.60;0.60;;;;;;;-1.20;74.91;100565.28;5066986;28;20025;-75
2022/11/20 02:09:01;;;;;;;1.02;1.02;;;;;;;-1.17;74.80;100561.97;5067587;28;20021;-75
2022/11/20 02:11:26;;;;;;;0.60;0.60;;;;;;;-1.14;75.15;100575.72;5067293;28;20028;-75
2022/11/20 02:13:53;;;;;;;0.52;0.52;;;;;;;-1.17;74.95;100551.78;5067152;28;20112;-74
2022/11/20 02:16:24;;;;;;;0.60;0.60;;;;;;;-1.08;74.84;100553.84;5066810;28;20504;-74
2022/11/20 02:18:50;;;;;;;0.90;0.90;;;;;;;-1.02;75.02;100559.19;5066913;28;20021;-74
2022/11/20 02:21:21;;;;;;;0.60;0.60;;;;;;;-1.02;75.07;100552.44;5066947;28;20025;-75
2022/11/20 02:24:14;;;;;;;0.55;0.55;;;;;;;-0.98;74.98;100547.44;5065608;28;20027;-75
2022/11/20 02:26:55;;;;;;;0.60;0.60;;;;;;;-1.02;75.08;100552.44;5063993;28;20040;-75
2022/11/20 02:29:30;;;;;;;0.60;0.60;;;;;;;-0.98;75.27;100555.09;5066812;28;20029;-75
2022/11/20 02:31:59;;;;;;;0.60;0.60;;;;;;;-1.01;75.05;100543.97;5066605;28;20028;-75
2022/11/20 02:34:24;;;;;;;0.52;0.52;;;;;;;-0.94;75.03;100554.44;5066642;28;20045;-75
2022/11/20 02:36:51;;;;;;;0.65;0.65;;;;;;;-0.98;75.27;100548.34;5066413;28;20104;-74
2022/11/20 02:39:20;;;;;;;0.60;0.60;;;;;;;-0.97;75.20;100549.19;5066151;28;20047;-74
2022/11/20 02:41:46;;;;;;;0.60;0.60;;;;;;;-0.94;75.21;100544.25;5066568;28;20044;-75
2022/11/20 02:44:12;;;;;;;0.60;0.60;;;;;;;-0.93;75.19;100551.06;5066708;28;20033;-76
2022/11/20 02:46:37;;;;;;;0.60;0.60;;;;;;;-0.88;75.19;100557.22;5066386;28;20085;-74
2022/11/20 02:49:04;;;;;;;0.60;0.60;;;;;;;-0.92;75.23;100547.69;5066331;28;20021;-76
2022/11/20 02:51:30;;;;;;;0.70;0.70;;;;;;;-0.98;75.24;100538.13;5066462;28;20029;-76
2022/11/20 02:53:56;;;;;;;0.60;0.60;;;;;;;-0.96;75.44;100546.72;5066324;28;20032;-76
2022/11/20 02:56:22;;;;;;;0.60;0.60;;;;;;;-0.98;75.42;100530.50;5064544;28;20017;-75
2022/11/20 02:58:47;;;;;;;0.60;0.60;;;;;;;-0.94;75.22;100534.03;5066314;28;20048;-76
2022/11/20 03:01:14;;;;;;;0.50;0.50;;;;;;;-0.92;75.30;100540.06;5064790;28;20515;-75
2022/11/20 03:03:39;;;;;;;0.60;0.60;;;;;;;-0.93;75.22;100543.41;5047990;28;20059;-76
2022/11/20 03:06:05;;;;;;;0.60;0.60;;;;;;;-0.94;75.40;100534.03;5064424;28;20028;-76
2022/11/20 03:08:30;;;;;;;0.60;0.60;;;;;;;-0.94;75.19;100539.16;5065968;28;20013;-75
2022/11/20 03:10:55;;;;;;;0.60;0.60;;;;;;;-0.92;75.32;100542.59;5065699;28;20029;-75
2022/11/20 03:13:21;;;;;;;0.50;0.50;;;;;;;-0.95;75.33;100532.28;5064397;28;20028;-75
2022/11/20 03:15:46;;;;;;;0.60;0.60;;;;;;;-0.89;75.13;100537.63;5063984;28;20024;-76
2022/11/20 03:18:13;;;;;;;0.65;0.65;;;;;;;-0.93;75.15;100525.56;5065756;28;20032;-75
2022/11/20 03:20:39;;;;;;;0.60;0.60;;;;;;;-0.95;75.16;100524.63;5065737;28;20060;-76
2022/11/20 03:23:04;;;;;;;0.60;0.60;;;;;;;-1.00;75.17;100520.25;5067993;28;20025;-75
2022/11/20 03:25:30;;;;;;;0.57;0.57;;;;;;;-0.97;75.08;100528.78;5065473;28;20018;-74
2022/11/20 03:27:55;;;;;;;0.60;0.60;;;;;;;-1.00;75.02;100530.44;5065679;28;20431;-76
2022/11/20 03:30:21;;;;;;;0.50;0.50;;;;;;;-1.03;75.13;100529.44;5065487;28;20464;-76
2022/11/20 03:32:46;;;;;;;0.60;0.60;;;;;;;-1.15;74.96;100520.47;5065492;28;20511;-75
2022/11/20 03:35:12;;;;;;;0.50;0.50;;;;;;;-1.11;74.84;100526.56;5065404;28;20025;-75
2022/11/20 03:37:37;;;;;;;0.68;0.68;;;;;;;-1.14;74.93;100527.31;5065172;28;20025;-75
2022/11/20 03:40:03;;;;;;;0.60;0.60;;;;;;;-1.16;75.06;100533.13;5065355;28;20021;-76
2022/11/20 03:42:47;;;;;;;0.60;0.60;;;;;;;-1.17;75.01;100532.28;5063854;28;20056;-76
2022/11/20 03:45:14;;;;;;;0.70;0.70;;;;;;;-1.28;75.02;100519.06;5065511;28;20025;-76
2022/11/20 03:47:39;;;;;;;0.60;0.60;;;;;;;-1.28;75.29;100516.53;5065398;28;20032;-74
2022/11/20 03:50:05;;;;;;;0.60;0.60;;;;;;;-1.22;75.39;100526.13;5065427;28;20024;-76
2022/11/20 03:52:30;;;;;;;0.60;0.60;;;;;;;-1.22;75.50;100522.69;5065338;28;20049;-75
2022/11/20 03:54:56;;;;;;;0.60;0.60;;;;;;;-1.26;75.74;100512.38;5065129;28;20021;-75
2022/11/20 03:57:21;;;;;;;0.60;0.60;;;;;;;-1.24;75.65;100527.72;5065252;28;20388;-75
2022/11/20 03:59:46;;;;;;;0.50;0.50;;;;;;;-1.29;75.48;100506.28;5063817;28;20084;-75
2022/11/20 04:02:12;;;;;;;0.60;0.60;;;;;;;-1.29;75.53;100507.16;5063800;28;20185;-74
2022/11/20 04:04:37;;;;;;;0.60;0.60;;;;;;;-1.24;75.66;100509.91;5065077;28;20032;-75
2022/11/20 04:07:02;;;;;;;0.50;0.50;;;;;;;-1.31;75.67;100503.66;5063459;28;20036;-75
2022/11/20 04:09:28;;;;;;;0.68;0.68;;;;;;;-1.28;75.83;100503.78;5064906;28;20104;-75
2022/11/20 04:11:53;;;;;;;0.60;0.60;;;;;;;-1.30;75.65;100492.69;5065312;28;20028;-75
2022/11/20 04:14:18;;;;;;;0.60;0.60;;;;;;;-1.29;75.80;100506.28;5063703;28;20021;-75
2022/11/20 04:16:44;;;;;;;0.60;0.60;;;;;;;-1.32;75.75;100494.28;5064962;28;20035;-76
2022/11/20 04:19:12;;;;;;;0.60;0.60;;;;;;;-1.31;75.80;100493.47;5064913;28;20033;-76
2022/11/20 04:21:37;;;;;;;0.60;0.60;;;;;;;-1.31;75.77;100493.47;5064080;28;20096;-76
2022/11/20 04:24:03;;;;;;;0.60;0.60;;;;;;;-1.32;75.88;100495.97;5065036;28;20025;-75
2022/11/20 04:26:30;;;;;;;0.60;0.60;;;;;;;-1.34;75.82;100487.41;5064630;28;20029;-75
2022/11/20 04:28:56;;;;;;;0.60;0.60;;;;;;;-1.34;75.83;100492.50;5068927;28;20024;-75
2022/11/20 04:31:24;;;;;;;0.60;0.60;;;;;;;-1.35;75.95;100489.06;5068900;28;20029;-75
2022/11/20 04:33:50;;;;;;;0.60;0.60;;;;;;;-1.37;76.01;100483.03;5068997;28;20024;-76
2022/11/20 04:36:25;;;;;;;0.60;0.60;;;;;;;-1.40;75.97;100473.59;5067891;28;20063;-77
2022/11/20 04:38:54;;;;;;;0.55;0.55;;;;;;;-1.44;75.84;100474.28;5068021;28;20102;-77
2022/11/20 04:41:22;;;;;;;0.98;0.98;;;;;;;-1.39;76.29;100469.38;5067251;28;20060;-75
2022/11/20 04:43:48;;;;;;;0.60;0.60;;;;;;;-1.43;76.37;100473.47;5069018;28;20029;-74
2022/11/20 04:46:14;;;;;;;0.70;0.70;;;;;;;-1.46;76.31;100457.19;5050614;28;20025;-75
2022/11/20 04:48:39;;;;;;;0.60;0.60;;;;;;;-1.41;76.31;100461.69;5067309;28;20084;-68
2022/11/20 04:51:05;;;;;;;0.70;0.70;;;;;;;-1.43;76.20;100457.31;5068511;28;20476;-74
2022/11/20 04:53:31;;;;;;;0.82;0.82;;;;;;;-1.38;76.05;100469.44;5067084;28;20025;-74
2022/11/20 04:56:01;;;;;;;0.70;0.70;;;;;;;-1.43;76.20;100457.31;5068160;28;20054;-74
2022/11/20 04:58:26;;;;;;;0.68;0.68;;;;;;;-1.41;76.17;100458.25;5068191;28;20029;-74
2022/11/20 05:00:52;;;;;;;0.60;0.60;;;;;;;-1.45;76.19;100457.25;5067075;28;20033;-74
2022/11/20 05:03:17;;;;;;;0.70;0.70;;;;;;;-1.44;76.17;100455.59;5068605;28;20029;-74
2022/11/20 05:05:42;;;;;;;0.57;0.57;;;;;;;-1.41;75.94;100460.81;5068214;28;20020;-74
2022/11/20 05:08:08;;;;;;;0.60;0.60;;;;;;;-1.39;76.08;100451.56;5066706;28;20481;-76
2022/11/20 05:10:33;;;;;;;0.60;0.60;;;;;;;-1.36;75.87;100456.78;5067841;28;20021;-75
2022/11/20 05:12:58;;;;;;;0.60;0.60;;;;;;;-1.35;76.07;100448.31;5068049;28;20032;-75
2022/11/20 05:15:24;;;;;;;0.60;0.60;;;;;;;-1.31;75.89;100444.22;5066759;28;20021;-75
2022/11/20 05:17:50;;;;;;;0.60;0.60;;;;;;;-1.34;75.98;100452.59;5066614;28;20032;-75
2022/11/20 05:20:16;;;;;;;0.60;0.60;;;;;;;-1.40;76.12;100430.31;5067860;28;20045;-75
2022/11/20 05:22:42;;;;;;;0.60;0.60;;;;;;;-1.34;76.06;100439.00;5066972;28;20017;-75
2022/11/20 05:25:08;;;;;;;0.60;0.60;;;;;;;-1.34;75.83;100432.22;5068071;28;20055;-75
2022/11/20 05:27:33;;;;;;;0.60;0.60;;;;;;;-1.37;75.90;100427.88;5067924;28;20059;-76
2022/11/20 05:29:59;;;;;;;0.60;0.60;;;;;;;-1.42;76.09;100424.28;5068222;28;20658;-75
2022/11/20 05:32:25;;;;;;;0.60;0.60;;;;;;;-1.38;75.83;100425.28;5069047;28;20070;-75
2022/11/20 05:34:53;;;;;;;0.60;0.60;;;;;;;-1.35;76.10;100419.44;5067521;28;20040;-75
2022/11/20 05:37:19;;;;;;;0.60;0.60;;;;;;;-1.38;76.07;100415.97;5068322;28;20028;-75
2022/11/20 05:39:44;;;;;;;0.60;0.60;;;;;;;-1.37;76.13;100411.72;5067537;28;20048;-75
2022/11/20 05:44:53;;;;;;;0.60;0.60;;;;;;;-1.34;76.18;100406.75;5068345;28;20059;-75
2022/11/20 05:47:19;;;;;;;0.60;0.60;;;;;;;-1.30;76.14;100411.19;5067384;28;20276;-76
2022/11/20 05:49:44;;;;;;;0.60;0.60;;;;;;;-1.29;76.14;100410.34;5066361;28;20055;-75
2022/11/20 05:52:09;;;;;;;0.70;0.70;;;;;;;-1.23;76.20;100413.97;5067677;28;20052;-73
2022/11/20 05:54:35;;;;;;;0.70;0.70;;;;;;;-1.21;76.07;100404.69;5067350;28;20054;-73
2022/11/20 05:57:00;;;;;;;0.60;0.60;;;;;;;-1.21;76.16;100404.69;5066492;28;20063;-75
2022/11/20 05:59:26;;;;;;;0.60;0.60;;;;;;;-1.18;76.21;100409.94;5067218;28;20029;-74
2022/11/20 06:01:51;;;;;;;0.60;0.60;;;;;;;-1.19;76.12;100405.63;5067235;28;20025;-74
2022/11/20 06:04:16;;;;;;;0.57;0.57;;;;;;;-1.17;75.96;100404.03;5067226;28;20108;-75
2022/11/20 06:06:42;;;;;;;0.60;0.60;;;;;;;-1.13;75.80;100403.31;5066978;28;20024;-65
2022/11/20 06:09:07;;;;;;;0.60;0.60;;;;;;;-1.13;75.92;100400.78;5067147;28;20021;-75
2022/11/20 06:11:33;;;;;;;0.70;0.70;;;;;;;-1.12;75.84;100394.88;5067043;28;20017;-75
2022/11/20 06:13:58;;;;;;;0.60;0.60;;;;;;;-1.13;75.99;100386.38;5067165;28;20033;-75
2022/11/20 06:16:23;;;;;;;0.63;0.63;;;;;;;-1.09;75.65;100389.91;5065268;28;20047;-76
2022/11/20 06:18:49;;;;;;;0.60;0.60;;;;;;;-1.13;75.84;100380.38;5065487;28;20021;-74
2022/11/20 06:21:17;;;;;;;0.70;0.70;;;;;;;-1.07;75.80;100385.72;5065650;28;20025;-74
2022/11/20 06:23:43;;;;;;;0.60;0.60;;;;;;;-1.05;75.91;100381.56;5066999;28;20025;-74
2022/11/20 06:26:11;;;;;;;0.60;0.60;;;;;;;-1.07;75.92;100385.72;5065263;28;20032;-73
2022/11/20 06:28:36;;;;;;;0.60;0.60;;;;;;;-0.96;75.65;100387.81;5066752;28;20032;-73
2022/11/20 06:31:04;;;;;;;0.52;0.52;;;;;;;-0.98;75.64;100375.03;5065124;28;20028;-73
2022/11/20 06:33:29;;;;;;;0.70;0.70;;;;;;;-1.04;75.68;100370.53;5066923;28;20025;-74
2022/11/20 06:35:59;;;;;;;0.60;0.60;;;;;;;-0.97;75.66;100380.97;5065108;28;20025;-73
2022/11/20 06:38:26;;;;;;;0.60;0.60;;;;;;;-0.99;75.76;100373.28;5067540;28;20031;-74
2022/11/20 06:40:52;;;;;;;0.60;0.60;;;;;;;-0.92;75.61;100374.38;5065422;28;20056;-75
2022/11/20 06:43:17;;;;;;;0.50;0.50;;;;;;;-0.96;75.53;100370.00;5065163;28;20055;-74
2022/11/20 06:45:42;;;;;;;0.50;0.50;;;;;;;-0.99;75.52;100365.63;5066356;28;20024;-75
2022/11/20 06:48:09;;;;;;;0.60;0.60;;;;;;;-0.93;75.52;100367.56;5064696;28;20388;-75
2022/11/20 06:50:36;;;;;;;0.47;0.47;;;;;;;-0.94;75.60;100360.72;5047422;28;20029;-75
2022/11/20 06:53:03;;;;;;;0.60;0.60;;;;;;;-0.90;75.56;100360.03;5066279;28;20103;-74
2022/11/20 06:55:29;;;;;;;0.50;0.50;;;;;;;-0.88;75.35;100359.25;5066120;28;20025;-74
2022/11/20 06:57:54;;;;;;;0.68;0.68;;;;;;;-0.90;75.43;100360.03;5066181;28;20385;-74
2022/11/20 07:00:19;;;;;;;0.60;0.60;;;;;;;-0.91;75.49;100350.66;5066043;28;20036;-74
2022/11/20 07:02:45;;;;;;;0.60;0.60;;;;;;;-0.91;75.69;100360.84;5066795;28;20556;-74
2022/11/20 07:05:10;;;;;;;0.60;0.60;;;;;;;-0.83;75.51;100373.88;5065366;28;20379;-74
2022/11/20 07:07:35;;;;;;;0.60;0.60;;;;;;;-0.89;75.32;100349.00;5065839;28;20055;-74
2022/11/20 07:10:01;;;;;;;0.50;0.50;;;;;;;-0.83;75.54;100356.03;5047960;28;20020;-74
2022/11/20 07:12:26;;;;;;;0.60;0.60;;;;;;;-0.81;75.23;100357.81;5066313;28;20032;-75
2022/11/20 07:14:51;;;;;;;0.68;0.68;;;;;;;-0.78;75.44;100362.16;5065973;28;20020;-74
2022/11/20 07:17:17;;;;;;;0.60;0.60;;;;;;;-0.85;75.43;100348.31;5065486;28;20055;-74
2022/11/20 07:19:42;;;;;;;0.65;0.65;;;;;;;-0.79;75.36;100348.56;5065411;28;20051;-75
2022/11/20 07:22:08;;;;;;;0.57;0.57;;;;;;;-0.76;75.52;100351.22;5065702;28;20035;-74
2022/11/20 07:24:34;;;;;;;0.60;0.60;;;;;;;-0.72;75.21;100353.88;5065450;28;20028;-74
2022/11/20 07:27:00;;;;;;;0.60;0.60;;;;;;;-0.69;75.25;100356.53;5065594;28;20465;-75
2022/11/20 07:29:25;;;;;;;0.60;0.60;;;;;;;-0.68;75.13;100348.06;5065497;28;20033;-75
2022/11/20 07:31:50;;;;;;;0.57;0.57;;;;;;;-0.65;75.25;100349.06;5065455;28;20039;-75
2022/11/20 07:34:16;;;;;;;0.60;0.60;;;;;;;-0.65;75.17;100350.72;5065415;28;20056;-74
2022/11/20 07:36:41;;;;;;;0.60;0.60;;;;;;;-0.62;75.11;100353.38;5065325;28;20047;-75
2022/11/20 07:39:06;;;;;;;0.60;0.60;;;;;;;-0.61;75.11;100355.13;5065296;28;20060;-74
2022/11/20 07:41:32;;;;;;;0.60;0.60;;;;;;;-0.62;75.01;100345.72;5065113;28;20389;-74
2022/11/20 07:43:58;;;;;;;0.60;0.60;;;;;;;-0.58;74.74;100345.06;5065461;28;20049;-74
2022/11/20 07:46:23;;;;;;;0.60;0.60;;;;;;;-0.61;74.71;100336.41;5065351;28;20035;-75
2022/11/20 07:48:49;;;;;;;0.68;0.68;;;;;;;-0.59;74.83;100329.69;5065445;28;20017;-74
2022/11/20 07:51:14;;;;;;;0.60;0.60;;;;;;;-0.57;74.71;100330.59;5065336;28;20025;-74
2022/11/20 07:53:39;;;;;;;0.60;0.60;;;;;;;-0.52;74.56;100335.06;5065221;28;20074;-75
2022/11/20 07:56:05;;;;;;;0.60;0.60;;;;;;;-0.48;74.15;100335.19;5065163;28;20035;-75
2022/11/20 07:58:32;;;;;;;0.60;0.60;;;;;;;-0.50;74.11;100330.88;5063444;28;20021;-75
2022/11/20 08:01:02;;;;;;;0.60;0.60;;;;;;;-0.48;74.04;100320.75;5064823;28;20085;-74
2022/11/20 08:03:27;;;;;;;0.55;0.55;;;;;;;-0.45;74.11;100322.53;5065106;28;20036;-75
2022/11/20 08:05:53;;;;;;;0.60;0.60;;;;;;;-0.44;73.97;100324.25;5065125;28;20029;-74
2022/11/20 08:08:18;;;;;;;0.70;0.70;;;;;;;-0.41;74.03;100322.69;5047344;28;20028;-74
2022/11/20 08:10:43;;;;;;;0.60;0.60;;;;;;;-0.41;74.05;100326.91;5063549;28;20048;-75
2022/11/20 08:15:53;;;;;;;0.50;0.50;;;;;;;-0.31;73.60;100326.44;5065496;28;20035;-75
2022/11/20 08:18:18;;;;;;;0.60;0.60;;;;;;;-0.33;73.75;100330.59;5063770;28;20052;-75
2022/11/20 08:20:44;;;;;;;0.60;0.60;;;;;;;-0.32;73.83;100324.69;5065098;28;20511;-74
2022/11/20 08:23:10;;;;;;;0.60;0.60;;;;;;;-0.39;73.74;100315.09;5063435;28;20029;-74
2022/11/20 08:25:36;;;;;;;0.50;0.50;;;;;;;-0.33;73.72;100314.44;5064539;28;20033;-74
2022/11/20 08:28:06;;;;;;;0.60;0.60;;;;;;;-0.24;73.26;100317.31;5065013;28;20051;-75
2022/11/20 08:30:33;;;;;;;0.60;0.60;;;;;;;-0.27;73.43;100315.50;5063112;28;20448;-74
2022/11/20 08:33:04;;;;;;;0.50;0.50;;;;;;;-0.22;73.40;100313.13;5064910;28;20052;-75
2022/11/20 08:35:33;;;;;;;0.80;0.80;;;;;;;-0.21;73.56;100319.97;5063570;28;20111;-76
2022/11/20 08:37:58;;;;;;;0.60;0.60;;;;;;;-0.23;73.36;100305.41;5063404;28;20036;-75
2022/11/20 08:40:24;;;;;;;0.60;0.60;;;;;;;-0.17;73.18;100306.50;5064702;28;20029;-75
2022/11/20 08:42:50;;;;;;;0.60;0.60;;;;;;;-0.14;73.12;100306.59;5064671;28;20028;-75
2022/11/20 08:45:17;;;;;;;0.60;0.60;;;;;;;-0.11;73.38;100316.03;5064808;28;20040;-75
2022/11/20 08:47:43;;;;;;;0.60;0.60;;;;;;;-0.07;73.12;100311.91;5064814;28;20084;-74
2022/11/20 08:50:10;;;;;;;0.60;0.60;;;;;;;-0.07;73.19;100302.56;5065001;28;20021;-73
2022/11/20 08:52:35;;;;;;;0.60;0.60;;;;;;;-0.06;73.20;100309.41;5064634;28;20096;-75
2022/11/20 08:55:01;;;;;;;0.50;0.50;;;;;;;0.02;72.78;100301.16;5064487;28;20029;-77
2022/11/20 08:57:26;;;;;;;0.60;0.60;;;;;;;-0.03;72.57;100304.41;5064655;28;20025;-74
2022/11/20 08:59:51;;;;;;;0.60;0.60;;;;;;;0.03;72.58;100302.88;5064622;28;20112;-75
2022/11/20 09:02:17;;;;;;;0.50;0.50;;;;;;;0.06;72.32;100308.97;5064623;28;20097;-74
2022/11/20 09:04:42;;;;;;;0.50;0.50;;;;;;;0.08;72.24;100314.97;5064725;28;20025;-75
2022/11/20 09:07:07;;;;;;;0.60;0.60;;;;;;;0.08;72.40;100307.31;5063343;28;20040;-75
2022/11/20 09:09:33;;;;;;;0.60;0.60;;;;;;;0.11;72.43;100312.50;5063320;28;20021;-70
2022/11/20 09:11:58;;;;;;;0.60;0.60;;;;;;;0.14;72.14;100290.47;5064245;28;20028;-75
2022/11/20 09:14:28;;;;;;;0.60;0.60;;;;;;;0.18;72.04;100305.91;5065826;28;20107;-74
2022/11/20 09:16:55;;;;;;;0.70;0.70;;;;;;;0.23;71.93;100291.63;5067961;28;20047;-78
2022/11/20 09:19:20;;;;;;;0.60;0.60;;;;;;;0.17;71.59;100276.13;5045341;28;20034;-76
2022/11/20 09:21:46;;;;;;;0.60;0.60;;;;;;;0.26;71.67;100287.44;5030323;28;20025;-75
2022/11/20 09:24:11;;;;;;;0.60;0.60;;;;;;;0.35;71.38;100293.69;5048063;28;20021;-76
2022/11/20 09:26:36;;;;;;;0.60;0.60;;;;;;;0.41;71.03;100297.25;5047886;28;20085;-78
2022/11/20 09:29:02;;;;;;;0.60;0.60;;;;;;;0.54;71.00;100293.41;5048359;28;20013;-76
2022/11/20 09:31:27;;;;;;;0.70;0.70;;;;;;;0.62;71.08;100279.19;5063484;28;20028;-76
2022/11/20 09:33:52;;;;;;;0.60;0.60;;;;;;;0.76;70.43;100276.16;5048194;28;20022;-76
2022/11/20 09:36:21;;;;;;;0.73;0.73;;;;;;;0.86;70.49;100265.41;5047882;28;20362;-78
2022/11/20 09:38:47;;;;;;;0.60;0.60;;;;;;;1.07;69.92;100257.47;5047862;28;20029;-78
2022/11/20 09:41:38;;;;;;;0.60;0.60;;;;;;;1.30;69.50;100264.91;5047639;28;20036;-78
2022/11/20 09:44:09;;;;;;;0.50;0.50;;;;;;;1.42;68.79;100260.97;5047949;28;20030;-77
2022/11/20 09:46:52;;;;;;;0.68;0.68;;;;;;;1.48;69.10;100256.88;5047456;28;20040;-77
2022/11/20 09:49:55;;;;;;;0.60;0.60;;;;;;;1.61;68.64;100249.50;5047534;28;20025;-77
2022/11/20 09:52:26;;;;;;;0.50;0.50;;;;;;;1.76;68.36;100255.84;5047393;28;20025;-75
2022/11/20 09:54:54;;;;;;;0.73;0.73;;;;;;;1.76;68.24;100237.94;5047243;28;20032;-75
2022/11/20 09:57:28;;;;;;;0.50;0.50;;;;;;;1.82;67.71;100238.94;5029525;28;20049;-76
2022/11/20 10:00:00;;;;;;;0.52;0.52;;;;;;;1.84;67.65;100236.41;5047337;28;20056;-76
2022/11/20 10:02:39;;;;;;;0.60;0.60;;;;;;;1.89;67.82;100229.72;5029247;28;20049;-76
2022/11/20 10:05:19;;;;;;;0.60;0.60;;;;;;;2.11;68.03;100235.34;5029259;28;20079;-75
2022/11/20 10:08:08;;;;;;;0.50;0.50;;;;;;;2.43;67.72;100236.94;5062672;28;20021;-78
2022/11/20 10:10:52;;;;;;;0.60;0.60;;;;;;;2.65;66.95;100230.56;5047237;28;20028;-76
2022/11/20 10:13:39;;;;;;;0.50;0.50;;;;;;;2.76;66.64;100235.94;5047186;28;20112;-78
2022/11/20 10:16:34;;;;;;;0.50;0.50;;;;;;;2.58;66.26;100232.13;5062156;28;20025;-75
2022/11/20 10:19:37;;;;;;;0.52;0.52;;;;;;;2.61;67.45;100223.63;5048506;28;20114;-77
2022/11/20 10:22:26;;;;;;;0.60;0.60;;;;;;;2.94;67.81;100221.75;5066885;28;20033;-78
2022/11/20 10:24:56;;;;;;;0.50;0.50;;;;;;;3.14;67.62;100214.44;5064960;28;20029;-75
2022/11/20 10:27:21;;;;;;;1.70;1.60;;;;;;;3.35;67.28;100218.25;5066953;28;20028;-77
2022/11/20 10:30:00;;;;;;;0.50;0.50;;;;;;;3.37;66.55;100219.13;5066818;28;20049;-77
2022/11/20 10:32:34;;;;;;;0.50;0.50;;;;;;;3.19;65.79;100197.44;5067033;28;20056;-77
2022/11/20 10:35:04;;;;;;;0.50;0.50;;;;;;;3.22;66.23;100204.31;5067393;28;20021;-76
2022/11/20 10:37:32;;;;;;;0.50;0.50;;;;;;;3.29;65.66;100206.16;5065737;28;20024;-77
2022/11/20 10:40:16;;;;;;;0.50;0.50;;;;;;;3.35;65.60;100197.72;5065299;28;20044;-77
2022/11/20 10:42:50;;;;;;;0.50;0.50;;;;;;;3.37;65.81;100195.19;5067962;28;20020;-77
2022/11/20 10:45:29;;;;;;;0.50;0.50;;;;;;;3.38;64.66;100187.50;5068455;28;20032;-79
2022/11/20 10:48:11;;;;;;;0.52;0.52;;;;;;;3.22;64.80;100184.66;5066442;28;20021;-77
2022/11/20 10:50:47;;;;;;;0.50;0.50;;;;;;;3.02;64.31;100173.19;5067921;28;20448;-78
2022/11/20 10:53:41;;;;;;;0.47;0.47;;;;;;;2.65;64.13;100178.44;5065225;28;20048;-77
2022/11/20 10:56:30;;;;;;;0.63;0.63;;;;;;;2.51;65.17;100179.00;5065840;28;20045;-77
2022/11/20 10:59:02;;;;;;;0.55;0.55;;;;;;;2.41;64.62;100167.69;5066120;28;20112;-76
2022/11/20 11:01:27;;;;;;;0.65;0.65;;;;;;;2.52;64.73;100161.94;5064860;28;20033;-77
2022/11/20 11:03:55;;;;;;;0.60;0.60;;;;;;;2.66;64.75;100155.41;5066156;28;20032;-76
2022/11/20 11:06:28;;;;;;;0.60;0.60;;;;;;;2.99;64.23;100150.88;5048005;28;20021;-76
2022/11/20 11:08:58;;;;;;;0.50;0.50;;;;;;;3.51;63.29;100144.94;5064723;28;20083;-79
2022/11/20 11:11:27;;;;;;;0.60;0.60;;;;;;;3.95;62.05;100158.44;5048458;28;20021;-77
2022/11/20 11:13:52;;;;;;;0.50;0.50;;;;;;;4.04;60.69;100143.16;5066639;28;20029;-78
2022/11/20 11:16:26;;;;;;;0.60;0.60;;;;;;;3.61;60.75;100138.25;5065819;28;20128;-77
2022/11/20 11:19:03;;;;;;;0.60;0.60;;;;;;;3.01;61.98;100138.09;5067000;28;20021;-78
2022/11/20 11:21:29;;;;;;;0.50;0.50;;;;;;;2.64;62.80;100154.50;5064885;28;20071;-76
2022/11/20 11:24:03;;;;;;;0.50;0.50;;;;;;;2.33;63.08;100133.38;5064575;28;20037;-77
2022/11/20 11:26:29;;;;;;;0.50;0.50;;;;;;;2.03;63.79;100132.72;5065944;28;20047;-78
2022/11/20 11:29:00;;;;;;;0.50;0.50;;;;;;;1.79;64.49;100120.25;5065776;28;20465;-77
2022/11/20 11:31:29;;;;;;;0.60;0.60;;;;;;;1.79;64.53;100127.94;5064089;28;20535;-77
2022/11/20 11:34:13;;;;;;;0.57;0.57;;;;;;;1.64;64.95;100126.75;5065606;28;20033;-76
2022/11/20 11:36:39;;;;;;;0.50;0.50;;;;;;;1.47;65.06;100109.28;5064957;28;20021;-74
2022/11/20 11:39:10;;;;;;;0.50;0.50;;;;;;;1.51;65.16;100122.16;5065657;28;20025;-74